sensor_id;sensor_type;location;lat;lon;timestamp;P1;durP1;ratioP1;P2;durP2;ratioP2
75417;SDS011;63997;52.112;5.420;2023-02-28T00:01:11;4.40;;;1.90;;
75417;SDS011;63997;52.112;5.420;2023-02-28T00:03:38;2.92;;;1.85;;
75417;SDS011;63997;52.112;5.420;2023-02-28T00:06:06;3.17;;;1.60;;
75417;SDS011;63997;52.112;5.420;2023-02-28T00:08:35;5.35;;;1.63;;
75417;SDS011;63997;52.112;5.420;2023-02-28T00:11:05;4.57;;;1.90;;
75417;SDS011;63997;52.112;5.420;2023-02-28T00:13:33;3.00;;;1.73;;
75417;SDS011;63997;52.112;5.420;2023-02-28T00:16:05;3.95;;;1.90;;
75417;SDS011;63997;52.112;5.420;2023-02-28T00:18:34;5.63;;;1.95;;
75417;SDS011;63997;52.112;5.420;2023-02-28T00:21:01;2.70;;;1.90;;
75417;SDS011;63997;52.112;5.420;2023-02-28T00:23:27;4.50;;;1.90;;
75417;SDS011;63997;52.112;5.420;2023-02-28T00:25:55;7.73;;;2.03;;
75417;SDS011;63997;52.112;5.420;2023-02-28T00:28:22;4.80;;;1.70;;
75417;SDS011;63997;52.112;5.420;2023-02-28T00:30:48;3.75;;;2.20;;
75417;SDS011;63997;52.112;5.420;2023-02-28T00:33:15;4.15;;;1.58;;
75417;SDS011;63997;52.112;5.420;2023-02-28T00:35:41;2.63;;;1.63;;
75417;SDS011;63997;52.112;5.420;2023-02-28T00:38:08;3.63;;;1.63;;
75417;SDS011;63997;52.112;5.420;2023-02-28T00:40:34;6.80;;;1.75;;
75417;SDS011;63997;52.112;5.420;2023-02-28T00:43:01;7.97;;;1.65;;
75417;SDS011;63997;52.112;5.420;2023-02-28T00:45:27;3.45;;;2.00;;
75417;SDS011;63997;52.112;5.420;2023-02-28T00:47:53;3.80;;;1.55;;
75417;SDS011;63997;52.112;5.420;2023-02-28T00:50:20;4.23;;;1.80;;
75417;SDS011;63997;52.112;5.420;2023-02-28T00:52:47;4.53;;;1.60;;
75417;SDS011;63997;52.112;5.420;2023-02-28T00:55:14;3.88;;;1.77;;
75417;SDS011;63997;52.112;5.420;2023-02-28T00:57:41;2.95;;;1.63;;
75417;SDS011;63997;52.112;5.420;2023-02-28T01:00:09;3.13;;;1.60;;
75417;SDS011;63997;52.112;5.420;2023-02-28T01:02:37;3.47;;;1.57;;
75417;SDS011;63997;52.112;5.420;2023-02-28T01:05:03;3.90;;;1.77;;
75417;SDS011;63997;52.112;5.420;2023-02-28T01:07:30;2.78;;;1.60;;
75417;SDS011;63997;52.112;5.420;2023-02-28T01:09:56;2.60;;;1.25;;
75417;SDS011;63997;52.112;5.420;2023-02-28T01:12:22;2.95;;;1.42;;
75417;SDS011;63997;52.112;5.420;2023-02-28T01:14:49;4.97;;;1.93;;
75417;SDS011;63997;52.112;5.420;2023-02-28T01:17:15;6.93;;;1.65;;
75417;SDS011;63997;52.112;5.420;2023-02-28T01:19:41;3.95;;;1.17;;
75417;SDS011;63997;52.112;5.420;2023-02-28T01:22:08;4.45;;;1.73;;
75417;SDS011;63997;52.112;5.420;2023-02-28T01:24:34;3.10;;;1.48;;
75417;SDS011;63997;52.112;5.420;2023-02-28T01:27:01;5.50;;;1.50;;
75417;SDS011;63997;52.112;5.420;2023-02-28T01:29:27;5.07;;;1.90;;
75417;SDS011;63997;52.112;5.420;2023-02-28T01:31:53;2.55;;;1.52;;
75417;SDS011;63997;52.112;5.420;2023-02-28T01:34:20;3.08;;;1.45;;
75417;SDS011;63997;52.112;5.420;2023-02-28T01:36:46;3.38;;;1.50;;
75417;SDS011;63997;52.112;5.420;2023-02-28T01:39:12;3.20;;;1.20;;
75417;SDS011;63997;52.112;5.420;2023-02-28T01:41:39;3.80;;;1.45;;
75417;SDS011;63997;52.112;5.420;2023-02-28T01:47:11;3.65;;;1.20;;
75417;SDS011;63997;52.112;5.420;2023-02-28T01:49:38;3.47;;;1.65;;
75417;SDS011;63997;52.112;5.420;2023-02-28T01:52:05;4.97;;;1.87;;
75417;SDS011;63997;52.112;5.420;2023-02-28T01:54:34;4.45;;;1.67;;
75417;SDS011;63997;52.112;5.420;2023-02-28T01:57:04;3.22;;;1.65;;
75417;SDS011;63997;52.112;5.420;2023-02-28T02:02:06;2.92;;;1.60;;
75417;SDS011;63997;52.112;5.420;2023-02-28T02:04:35;5.20;;;1.03;;
75417;SDS011;63997;52.112;5.420;2023-02-28T02:07:06;4.38;;;1.20;;
75417;SDS011;63997;52.112;5.420;2023-02-28T02:09:32;2.83;;;1.60;;
75417;SDS011;63997;52.112;5.420;2023-02-28T02:11:59;2.45;;;1.30;;
75417;SDS011;63997;52.112;5.420;2023-02-28T02:20:16;3.83;;;1.50;;
75417;SDS011;63997;52.112;5.420;2023-02-28T02:23:20;4.35;;;1.98;;
75417;SDS011;63997;52.112;5.420;2023-02-28T02:26:10;6.25;;;1.50;;
75417;SDS011;63997;52.112;5.420;2023-02-28T02:36:52;3.03;;;1.40;;
75417;SDS011;63997;52.112;5.420;2023-02-28T02:39:31;7.78;;;1.90;;
75417;SDS011;63997;52.112;5.420;2023-02-28T02:42:20;9.32;;;1.58;;
75417;SDS011;63997;52.112;5.420;2023-02-28T02:44:57;3.40;;;1.63;;
75417;SDS011;63997;52.112;5.420;2023-02-28T02:47:27;3.35;;;1.95;;
75417;SDS011;63997;52.112;5.420;2023-02-28T02:49:57;3.50;;;1.77;;
75417;SDS011;63997;52.112;5.420;2023-02-28T02:52:30;4.60;;;1.85;;
75417;SDS011;63997;52.112;5.420;2023-02-28T02:55:02;4.78;;;1.83;;
75417;SDS011;63997;52.112;5.420;2023-02-28T02:57:33;3.60;;;1.60;;
75417;SDS011;63997;52.112;5.420;2023-02-28T03:00:04;4.38;;;1.88;;
75417;SDS011;63997;52.112;5.420;2023-02-28T03:02:34;2.53;;;1.50;;
75417;SDS011;63997;52.112;5.420;2023-02-28T03:08:09;4.22;;;1.70;;
75417;SDS011;63997;52.112;5.420;2023-02-28T03:13:07;4.03;;;1.58;;
75417;SDS011;63997;52.112;5.420;2023-02-28T03:15:50;4.85;;;1.65;;
75417;SDS011;63997;52.112;5.420;2023-02-28T03:18:30;4.35;;;1.80;;
75417;SDS011;63997;52.112;5.420;2023-02-28T03:21:14;5.65;;;2.50;;
75417;SDS011;63997;52.112;5.420;2023-02-28T03:23:48;6.40;;;1.60;;
75417;SDS011;63997;52.112;5.420;2023-02-28T03:26:30;3.88;;;1.83;;
75417;SDS011;63997;52.112;5.420;2023-02-28T03:29:02;3.65;;;1.67;;
75417;SDS011;63997;52.112;5.420;2023-02-28T03:31:37;3.78;;;1.88;;
75417;SDS011;63997;52.112;5.420;2023-02-28T03:34:19;4.80;;;1.90;;
75417;SDS011;63997;52.112;5.420;2023-02-28T03:36:55;4.47;;;1.77;;
75417;SDS011;63997;52.112;5.420;2023-02-28T03:39:39;4.18;;;1.77;;
75417;SDS011;63997;52.112;5.420;2023-02-28T03:42:20;4.07;;;2.03;;
75417;SDS011;63997;52.112;5.420;2023-02-28T03:44:54;4.93;;;2.10;;
75417;SDS011;63997;52.112;5.420;2023-02-28T03:47:25;5.20;;;2.13;;
75417;SDS011;63997;52.112;5.420;2023-02-28T03:52:47;5.13;;;2.03;;
75417;SDS011;63997;52.112;5.420;2023-02-28T03:55:32;3.03;;;1.77;;
75417;SDS011;63997;52.112;5.420;2023-02-28T04:01:11;3.30;;;1.73;;
75417;SDS011;63997;52.112;5.420;2023-02-28T04:03:41;2.93;;;1.60;;
75417;SDS011;63997;52.112;5.420;2023-02-28T04:06:08;2.42;;;1.52;;
75417;SDS011;63997;52.112;5.420;2023-02-28T04:08:41;2.70;;;1.90;;
75417;SDS011;63997;52.112;5.420;2023-02-28T04:14:01;4.32;;;1.80;;
75417;SDS011;63997;52.112;5.420;2023-02-28T04:16:29;3.80;;;2.30;;
75417;SDS011;63997;52.112;5.420;2023-02-28T04:19:01;3.92;;;2.10;;
75417;SDS011;63997;52.112;5.420;2023-02-28T04:21:29;3.10;;;1.58;;
75417;SDS011;63997;52.112;5.420;2023-02-28T04:23:57;2.15;;;1.08;;
75417;SDS011;63997;52.112;5.420;2023-02-28T04:26:30;3.30;;;1.33;;
75417;SDS011;63997;52.112;5.420;2023-02-28T04:28:57;2.40;;;1.20;;
75417;SDS011;63997;52.112;5.420;2023-02-28T04:31:24;2.47;;;1.25;;
75417;SDS011;63997;52.112;5.420;2023-02-28T04:33:51;2.00;;;1.20;;
75417;SDS011;63997;52.112;5.420;2023-02-28T04:36:17;1.35;;;1.17;;
75417;SDS011;63997;52.112;5.420;2023-02-28T04:38:44;5.30;;;1.90;;
75417;SDS011;63997;52.112;5.420;2023-02-28T04:41:14;2.60;;;1.70;;
75417;SDS011;63997;52.112;5.420;2023-02-28T04:43:40;3.10;;;1.63;;
75417;SDS011;63997;52.112;5.420;2023-02-28T04:46:07;4.43;;;1.80;;
75417;SDS011;63997;52.112;5.420;2023-02-28T04:48:36;4.13;;;1.92;;
75417;SDS011;63997;52.112;5.420;2023-02-28T04:51:08;7.00;;;1.50;;
75417;SDS011;63997;52.112;5.420;2023-02-28T04:53:37;5.83;;;1.50;;
75417;SDS011;63997;52.112;5.420;2023-02-28T04:56:05;2.13;;;1.20;;
75417;SDS011;63997;52.112;5.420;2023-02-28T04:58:33;2.40;;;1.48;;
75417;SDS011;63997;52.112;5.420;2023-02-28T05:01:03;7.70;;;1.50;;
75417;SDS011;63997;52.112;5.420;2023-02-28T05:03:39;5.13;;;1.65;;
75417;SDS011;63997;52.112;5.420;2023-02-28T05:06:09;3.63;;;1.40;;
75417;SDS011;63997;52.112;5.420;2023-02-28T05:08:37;2.17;;;1.35;;
75417;SDS011;63997;52.112;5.420;2023-02-28T05:11:06;4.35;;;2.00;;
75417;SDS011;63997;52.112;5.420;2023-02-28T05:13:37;2.97;;;1.33;;
75417;SDS011;63997;52.112;5.420;2023-02-28T05:16:04;2.35;;;1.60;;
75417;SDS011;63997;52.112;5.420;2023-02-28T05:18:31;1.83;;;1.07;;
75417;SDS011;63997;52.112;5.420;2023-02-28T05:20:57;3.03;;;1.98;;
75417;SDS011;63997;52.112;5.420;2023-02-28T05:23:23;3.40;;;1.80;;
75417;SDS011;63997;52.112;5.420;2023-02-28T05:25:50;3.50;;;1.70;;
75417;SDS011;63997;52.112;5.420;2023-02-28T05:28:17;2.38;;;1.60;;
75417;SDS011;63997;52.112;5.420;2023-02-28T05:30:45;4.53;;;1.77;;
75417;SDS011;63997;52.112;5.420;2023-02-28T05:33:12;3.75;;;1.38;;
75417;SDS011;63997;52.112;5.420;2023-02-28T05:35:39;4.38;;;1.73;;
75417;SDS011;63997;52.112;5.420;2023-02-28T05:38:06;2.10;;;1.33;;
75417;SDS011;63997;52.112;5.420;2023-02-28T05:40:33;4.03;;;1.70;;
75417;SDS011;63997;52.112;5.420;2023-02-28T05:42:59;5.23;;;1.40;;
75417;SDS011;63997;52.112;5.420;2023-02-28T05:45:26;3.00;;;1.50;;
75417;SDS011;63997;52.112;5.420;2023-02-28T05:47:53;3.08;;;1.70;;
75417;SDS011;63997;52.112;5.420;2023-02-28T05:50:20;3.38;;;1.50;;
75417;SDS011;63997;52.112;5.420;2023-02-28T05:52:49;5.25;;;1.50;;
75417;SDS011;63997;52.112;5.420;2023-02-28T05:55:16;1.83;;;1.43;;
75417;SDS011;63997;52.112;5.420;2023-02-28T05:57:43;6.30;;;1.63;;
75417;SDS011;63997;52.112;5.420;2023-02-28T06:00:09;3.03;;;1.60;;
75417;SDS011;63997;52.112;5.420;2023-02-28T06:02:38;4.30;;;1.73;;
75417;SDS011;63997;52.112;5.420;2023-02-28T06:05:07;3.28;;;1.90;;
75417;SDS011;63997;52.112;5.420;2023-02-28T06:07:39;3.07;;;1.53;;
75417;SDS011;63997;52.112;5.420;2023-02-28T06:10:05;2.30;;;1.70;;
75417;SDS011;63997;52.112;5.420;2023-02-28T06:12:32;3.50;;;1.70;;
75417;SDS011;63997;52.112;5.420;2023-02-28T06:14:59;3.67;;;1.80;;
75417;SDS011;63997;52.112;5.420;2023-02-28T06:17:25;2.95;;;1.65;;
75417;SDS011;63997;52.112;5.420;2023-02-28T06:19:51;3.47;;;1.60;;
75417;SDS011;63997;52.112;5.420;2023-02-28T06:22:18;4.32;;;1.60;;
75417;SDS011;63997;52.112;5.420;2023-02-28T06:24:44;2.13;;;1.33;;
75417;SDS011;63997;52.112;5.420;2023-02-28T06:27:10;4.38;;;2.08;;
75417;SDS011;63997;52.112;5.420;2023-02-28T06:29:36;3.25;;;2.00;;
75417;SDS011;63997;52.112;5.420;2023-02-28T06:32:05;2.43;;;1.70;;
75417;SDS011;63997;52.112;5.420;2023-02-28T06:34:32;4.15;;;1.90;;
75417;SDS011;63997;52.112;5.420;2023-02-28T06:36:59;4.03;;;1.80;;
75417;SDS011;63997;52.112;5.420;2023-02-28T06:39:29;3.83;;;2.10;;
75417;SDS011;63997;52.112;5.420;2023-02-28T06:41:56;2.50;;;2.00;;
75417;SDS011;63997;52.112;5.420;2023-02-28T06:44:23;4.17;;;1.53;;
75417;SDS011;63997;52.112;5.420;2023-02-28T06:46:50;2.80;;;1.80;;
75417;SDS011;63997;52.112;5.420;2023-02-28T06:49:16;4.15;;;1.80;;
75417;SDS011;63997;52.112;5.420;2023-02-28T06:51:44;4.05;;;1.92;;
75417;SDS011;63997;52.112;5.420;2023-02-28T06:54:11;4.30;;;2.17;;
75417;SDS011;63997;52.112;5.420;2023-02-28T06:56:38;2.93;;;1.80;;
75417;SDS011;63997;52.112;5.420;2023-02-28T06:59:05;3.33;;;1.95;;
75417;SDS011;63997;52.112;5.420;2023-02-28T07:01:32;3.25;;;1.80;;
75417;SDS011;63997;52.112;5.420;2023-02-28T07:03:59;5.05;;;1.70;;
75417;SDS011;63997;52.112;5.420;2023-02-28T07:06:26;3.50;;;1.92;;
75417;SDS011;63997;52.112;5.420;2023-02-28T07:08:53;4.07;;;1.97;;
75417;SDS011;63997;52.112;5.420;2023-02-28T07:11:20;4.68;;;2.10;;
75417;SDS011;63997;52.112;5.420;2023-02-28T07:13:52;2.80;;;2.10;;
75417;SDS011;63997;52.112;5.420;2023-02-28T07:16:20;4.00;;;1.95;;
75417;SDS011;63997;52.112;5.420;2023-02-28T07:18:47;3.72;;;1.90;;
75417;SDS011;63997;52.112;5.420;2023-02-28T07:21:14;3.13;;;2.07;;
75417;SDS011;63997;52.112;5.420;2023-02-28T07:23:40;3.55;;;2.20;;
75417;SDS011;63997;52.112;5.420;2023-02-28T07:26:10;5.38;;;2.65;;
75417;SDS011;63997;52.112;5.420;2023-02-28T07:28:44;3.58;;;2.28;;
75417;SDS011;63997;52.112;5.420;2023-02-28T07:31:12;6.88;;;2.30;;
75417;SDS011;63997;52.112;5.420;2023-02-28T07:33:43;4.17;;;2.17;;
75417;SDS011;63997;52.112;5.420;2023-02-28T07:36:13;3.75;;;1.83;;
75417;SDS011;63997;52.112;5.420;2023-02-28T07:38:44;5.18;;;2.40;;
75417;SDS011;63997;52.112;5.420;2023-02-28T07:41:20;5.90;;;2.50;;
75417;SDS011;63997;52.112;5.420;2023-02-28T07:43:47;2.92;;;2.50;;
75417;SDS011;63997;52.112;5.420;2023-02-28T07:46:15;7.83;;;2.00;;
75417;SDS011;63997;52.112;5.420;2023-02-28T07:48:43;2.58;;;1.92;;
75417;SDS011;63997;52.112;5.420;2023-02-28T07:51:10;3.88;;;2.42;;
75417;SDS011;63997;52.112;5.420;2023-02-28T07:53:36;3.45;;;2.10;;
75417;SDS011;63997;52.112;5.420;2023-02-28T07:56:03;2.63;;;2.03;;
75417;SDS011;63997;52.112;5.420;2023-02-28T07:58:30;3.90;;;2.03;;
75417;SDS011;63997;52.112;5.420;2023-02-28T08:00:57;6.18;;;2.75;;
75417;SDS011;63997;52.112;5.420;2023-02-28T08:03:32;4.63;;;2.03;;
75417;SDS011;63997;52.112;5.420;2023-02-28T08:05:58;3.08;;;1.90;;
75417;SDS011;63997;52.112;5.420;2023-02-28T08:08:24;6.05;;;2.53;;
75417;SDS011;63997;52.112;5.420;2023-02-28T08:10:55;4.87;;;2.23;;
75417;SDS011;63997;52.112;5.420;2023-02-28T08:13:22;3.25;;;1.85;;
75417;SDS011;63997;52.112;5.420;2023-02-28T08:15:48;3.88;;;2.45;;
75417;SDS011;63997;52.112;5.420;2023-02-28T08:18:15;3.22;;;2.10;;
75417;SDS011;63997;52.112;5.420;2023-02-28T08:20:41;2.88;;;1.80;;
75417;SDS011;63997;52.112;5.420;2023-02-28T08:23:08;3.93;;;2.10;;
75417;SDS011;63997;52.112;5.420;2023-02-28T08:25:35;4.30;;;2.70;;
75417;SDS011;63997;52.112;5.420;2023-02-28T08:28:01;3.25;;;2.13;;
75417;SDS011;63997;52.112;5.420;2023-02-28T08:30:28;2.95;;;2.00;;
75417;SDS011;63997;52.112;5.420;2023-02-28T08:32:54;3.17;;;2.17;;
75417;SDS011;63997;52.112;5.420;2023-02-28T08:35:21;2.67;;;2.10;;
75417;SDS011;63997;52.112;5.420;2023-02-28T08:37:49;3.90;;;2.80;;
75417;SDS011;63997;52.112;5.420;2023-02-28T08:40:16;3.03;;;2.15;;
75417;SDS011;63997;52.112;5.420;2023-02-28T08:42:44;5.65;;;1.98;;
75417;SDS011;63997;52.112;5.420;2023-02-28T08:45:12;3.38;;;1.58;;
75417;SDS011;63997;52.112;5.420;2023-02-28T08:47:39;6.60;;;2.37;;
75417;SDS011;63997;52.112;5.420;2023-02-28T08:50:06;3.78;;;2.25;;
75417;SDS011;63997;52.112;5.420;2023-02-28T08:52:33;3.72;;;2.20;;
75417;SDS011;63997;52.112;5.420;2023-02-28T08:55:00;2.80;;;2.20;;
75417;SDS011;63997;52.112;5.420;2023-02-28T08:57:26;3.20;;;1.83;;
75417;SDS011;63997;52.112;5.420;2023-02-28T08:59:53;6.03;;;2.00;;
75417;SDS011;63997;52.112;5.420;2023-02-28T09:02:19;9.23;;;4.35;;
75417;SDS011;63997;52.112;5.420;2023-02-28T09:04:46;7.95;;;3.28;;
75417;SDS011;63997;52.112;5.420;2023-02-28T09:07:12;5.18;;;2.80;;
75417;SDS011;63997;52.112;5.420;2023-02-28T09:09:39;3.47;;;1.70;;
75417;SDS011;63997;52.112;5.420;2023-02-28T09:12:23;2.63;;;1.70;;
75417;SDS011;63997;52.112;5.420;2023-02-28T09:14:51;3.60;;;2.33;;
75417;SDS011;63997;52.112;5.420;2023-02-28T09:17:19;3.58;;;1.80;;
75417;SDS011;63997;52.112;5.420;2023-02-28T09:19:47;2.42;;;1.55;;
75417;SDS011;63997;52.112;5.420;2023-02-28T09:22:14;1.33;;;1.10;;
75417;SDS011;63997;52.112;5.420;2023-02-28T09:24:41;2.10;;;0.90;;
75417;SDS011;63997;52.112;5.420;2023-02-28T09:27:07;4.82;;;0.90;;
75417;SDS011;63997;52.112;5.420;2023-02-28T09:29:34;2.05;;;0.80;;
75417;SDS011;63997;52.112;5.420;2023-02-28T09:32:01;5.28;;;0.90;;
75417;SDS011;63997;52.112;5.420;2023-02-28T09:34:28;4.63;;;1.30;;
75417;SDS011;63997;52.112;5.420;2023-02-28T09:36:56;1.43;;;1.20;;
75417;SDS011;63997;52.112;5.420;2023-02-28T09:39:23;1.92;;;0.80;;
75417;SDS011;63997;52.112;5.420;2023-02-28T09:41:52;2.60;;;0.50;;
75417;SDS011;63997;52.112;5.420;2023-02-28T09:44:22;3.33;;;0.85;;
75417;SDS011;63997;52.112;5.420;2023-02-28T09:46:59;2.17;;;0.73;;
75417;SDS011;63997;52.112;5.420;2023-02-28T09:49:37;2.53;;;0.70;;
75417;SDS011;63997;52.112;5.420;2023-02-28T09:52:28;1.35;;;0.60;;
75417;SDS011;63997;52.112;5.420;2023-02-28T09:55:18;1.70;;;1.00;;
75417;SDS011;63997;52.112;5.420;2023-02-28T09:57:49;5.47;;;1.13;;
75417;SDS011;63997;52.112;5.420;2023-02-28T10:05:22;4.32;;;1.30;;
75417;SDS011;63997;52.112;5.420;2023-02-28T10:12:58;1.98;;;0.75;;
75417;SDS011;63997;52.112;5.420;2023-02-28T10:15:29;1.00;;;0.70;;
75417;SDS011;63997;52.112;5.420;2023-02-28T10:17:58;3.40;;;0.60;;
75417;SDS011;63997;52.112;5.420;2023-02-28T10:20:35;0.85;;;0.60;;
75417;SDS011;63997;52.112;5.420;2023-02-28T10:25:50;0.82;;;0.60;;
75417;SDS011;63997;52.112;5.420;2023-02-28T10:28:23;2.73;;;0.73;;
75417;SDS011;63997;52.112;5.420;2023-02-28T10:30:52;1.55;;;0.63;;
75417;SDS011;63997;52.112;5.420;2023-02-28T10:33:23;2.35;;;0.70;;
75417;SDS011;63997;52.112;5.420;2023-02-28T10:35:54;0.90;;;0.70;;
75417;SDS011;63997;52.112;5.420;2023-02-28T10:38:22;0.90;;;0.68;;
75417;SDS011;63997;52.112;5.420;2023-02-28T10:40:51;1.00;;;0.50;;
75417;SDS011;63997;52.112;5.420;2023-02-28T10:43:19;3.55;;;0.80;;
75417;SDS011;63997;52.112;5.420;2023-02-28T10:45:57;1.25;;;0.60;;
75417;SDS011;63997;52.112;5.420;2023-02-28T10:48:47;1.17;;;0.70;;
75417;SDS011;63997;52.112;5.420;2023-02-28T10:51:26;1.33;;;0.50;;
75417;SDS011;63997;52.112;5.420;2023-02-28T10:54:02;1.23;;;0.70;;
75417;SDS011;63997;52.112;5.420;2023-02-28T10:56:28;2.97;;;0.75;;
75417;SDS011;63997;52.112;5.420;2023-02-28T11:03:57;1.27;;;0.77;;
75417;SDS011;63997;52.112;5.420;2023-02-28T11:06:29;1.70;;;0.50;;
75417;SDS011;63997;52.112;5.420;2023-02-28T11:09:04;1.25;;;0.77;;
75417;SDS011;63997;52.112;5.420;2023-02-28T11:11:42;0.98;;;0.52;;
75417;SDS011;63997;52.112;5.420;2023-02-28T11:14:17;1.83;;;0.70;;
75417;SDS011;63997;52.112;5.420;2023-02-28T11:16:47;2.13;;;0.88;;
75417;SDS011;63997;52.112;5.420;2023-02-28T11:19:37;2.97;;;0.70;;
75417;SDS011;63997;52.112;5.420;2023-02-28T11:22:10;0.75;;;0.50;;
75417;SDS011;63997;52.112;5.420;2023-02-28T11:24:43;1.33;;;0.70;;
75417;SDS011;63997;52.112;5.420;2023-02-28T11:29:58;2.15;;;0.43;;
75417;SDS011;63997;52.112;5.420;2023-02-28T11:32:29;0.90;;;0.60;;
75417;SDS011;63997;52.112;5.420;2023-02-28T11:35:01;0.98;;;0.85;;
75417;SDS011;63997;52.112;5.420;2023-02-28T11:37:30;3.40;;;0.80;;
75417;SDS011;63997;52.112;5.420;2023-02-28T11:39:58;1.08;;;0.60;;
75417;SDS011;63997;52.112;5.420;2023-02-28T11:42:40;1.70;;;0.70;;
75417;SDS011;63997;52.112;5.420;2023-02-28T11:51:21;1.38;;;0.70;;
75417;SDS011;63997;52.112;5.420;2023-02-28T11:56:37;3.50;;;0.88;;
75417;SDS011;63997;52.112;5.420;2023-02-28T12:10:01;1.58;;;0.75;;
75417;SDS011;63997;52.112;5.420;2023-02-28T12:18:34;2.58;;;0.68;;
75417;SDS011;63997;52.112;5.420;2023-02-28T12:26:46;0.93;;;0.60;;
75417;SDS011;63997;52.112;5.420;2023-02-28T12:29:21;1.27;;;0.73;;
75417;SDS011;63997;52.112;5.420;2023-02-28T12:31:56;1.13;;;0.82;;
75417;SDS011;63997;52.112;5.420;2023-02-28T12:34:46;1.20;;;0.90;;
75417;SDS011;63997;52.112;5.420;2023-02-28T12:37:23;1.17;;;0.60;;
75417;SDS011;63997;52.112;5.420;2023-02-28T12:39:59;2.53;;;0.73;;
75417;SDS011;63997;52.112;5.420;2023-02-28T12:42:32;4.25;;;1.08;;
75417;SDS011;63997;52.112;5.420;2023-02-28T12:45:04;1.13;;;0.70;;
75417;SDS011;63997;52.112;5.420;2023-02-28T12:47:39;1.05;;;0.50;;
75417;SDS011;63997;52.112;5.420;2023-02-28T12:50:09;2.38;;;0.95;;
75417;SDS011;63997;52.112;5.420;2023-02-28T12:52:42;1.07;;;0.77;;
75417;SDS011;63997;52.112;5.420;2023-02-28T12:55:36;2.00;;;0.80;;
75417;SDS011;63997;52.112;5.420;2023-02-28T13:09:05;0.90;;;0.60;;
75417;SDS011;63997;52.112;5.420;2023-02-28T13:11:40;1.77;;;1.00;;
75417;SDS011;63997;52.112;5.420;2023-02-28T13:17:01;4.35;;;1.30;;
75417;SDS011;63997;52.112;5.420;2023-02-28T13:20:19;1.27;;;0.90;;
75417;SDS011;63997;52.112;5.420;2023-02-28T13:24:53;1.60;;;0.98;;
75417;SDS011;63997;52.112;5.420;2023-02-28T13:27:21;1.30;;;1.00;;
75417;SDS011;63997;52.112;5.420;2023-02-28T13:29:51;2.13;;;0.90;;
75417;SDS011;63997;52.112;5.420;2023-02-28T13:39:55;1.45;;;0.98;;
75417;SDS011;63997;52.112;5.420;2023-02-28T13:42:34;1.25;;;0.60;;
75417;SDS011;63997;52.112;5.420;2023-02-28T13:47:40;1.17;;;0.80;;
75417;SDS011;63997;52.112;5.420;2023-02-28T13:50:32;1.40;;;1.10;;
75417;SDS011;63997;52.112;5.420;2023-02-28T13:58:43;3.87;;;0.97;;
75417;SDS011;63997;52.112;5.420;2023-02-28T14:01:28;1.48;;;1.10;;
75417;SDS011;63997;52.112;5.420;2023-02-28T14:06:58;1.15;;;0.70;;
75417;SDS011;63997;52.112;5.420;2023-02-28T14:09:33;2.85;;;1.20;;
75417;SDS011;63997;52.112;5.420;2023-02-28T14:18:15;2.03;;;1.33;;
75417;SDS011;63997;52.112;5.420;2023-02-28T14:20:45;2.28;;;1.30;;
75417;SDS011;63997;52.112;5.420;2023-02-28T14:29:16;1.67;;;1.08;;
75417;SDS011;63997;52.112;5.420;2023-02-28T14:34:31;1.10;;;0.93;;
75417;SDS011;63997;52.112;5.420;2023-02-28T14:37:09;2.05;;;0.90;;
75417;SDS011;63997;52.112;5.420;2023-02-28T14:39:41;1.83;;;1.30;;
75417;SDS011;63997;52.112;5.420;2023-02-28T14:42:29;2.13;;;1.30;;
75417;SDS011;63997;52.112;5.420;2023-02-28T14:44:59;1.17;;;0.80;;
75417;SDS011;63997;52.112;5.420;2023-02-28T14:47:27;1.23;;;1.08;;
75417;SDS011;63997;52.112;5.420;2023-02-28T14:49:59;3.25;;;1.10;;
75417;SDS011;63997;52.112;5.420;2023-02-28T14:52:27;1.60;;;1.20;;
75417;SDS011;63997;52.112;5.420;2023-02-28T14:54:57;1.58;;;0.93;;
75417;SDS011;63997;52.112;5.420;2023-02-28T14:57:32;1.65;;;1.02;;
75417;SDS011;63997;52.112;5.420;2023-02-28T15:02:29;4.07;;;1.15;;
75417;SDS011;63997;52.112;5.420;2023-02-28T15:05:00;1.63;;;1.03;;
75417;SDS011;63997;52.112;5.420;2023-02-28T15:07:36;2.38;;;0.93;;
75417;SDS011;63997;52.112;5.420;2023-02-28T15:10:23;2.13;;;0.90;;
75417;SDS011;63997;52.112;5.420;2023-02-28T15:13:00;1.88;;;1.00;;
75417;SDS011;63997;52.112;5.420;2023-02-28T15:21:44;2.72;;;1.05;;
75417;SDS011;63997;52.112;5.420;2023-02-28T15:24:16;1.70;;;1.00;;
75417;SDS011;63997;52.112;5.420;2023-02-28T15:26:58;1.98;;;1.20;;
75417;SDS011;63997;52.112;5.420;2023-02-28T15:29:27;1.00;;;0.88;;
75417;SDS011;63997;52.112;5.420;2023-02-28T15:34:35;1.52;;;0.90;;
75417;SDS011;63997;52.112;5.420;2023-02-28T15:39:53;1.08;;;0.80;;
75417;SDS011;63997;52.112;5.420;2023-02-28T15:42:22;1.50;;;1.10;;
75417;SDS011;63997;52.112;5.420;2023-02-28T15:44:53;2.67;;;1.03;;
75417;SDS011;63997;52.112;5.420;2023-02-28T15:47:27;1.40;;;0.90;;
75417;SDS011;63997;52.112;5.420;2023-02-28T15:49:56;1.35;;;0.75;;
75417;SDS011;63997;52.112;5.420;2023-02-28T15:54:59;1.40;;;0.90;;
75417;SDS011;63997;52.112;5.420;2023-02-28T15:57:34;1.63;;;0.80;;
75417;SDS011;63997;52.112;5.420;2023-02-28T16:00:02;1.33;;;1.00;;
75417;SDS011;63997;52.112;5.420;2023-02-28T16:02:32;1.55;;;0.85;;
75417;SDS011;63997;52.112;5.420;2023-02-28T16:07:33;1.88;;;0.90;;
75417;SDS011;63997;52.112;5.420;2023-02-28T16:10:02;1.90;;;0.80;;
75417;SDS011;63997;52.112;5.420;2023-02-28T16:12:29;1.40;;;0.90;;
75417;SDS011;63997;52.112;5.420;2023-02-28T16:14:58;1.45;;;1.30;;
75417;SDS011;63997;52.112;5.420;2023-02-28T16:17:33;3.85;;;1.17;;
75417;SDS011;63997;52.112;5.420;2023-02-28T16:20:01;1.73;;;1.13;;
75417;SDS011;63997;52.112;5.420;2023-02-28T16:22:38;1.80;;;1.27;;
75417;SDS011;63997;52.112;5.420;2023-02-28T16:25:05;3.35;;;2.53;;
75417;SDS011;63997;52.112;5.420;2023-02-28T16:27:35;2.15;;;1.58;;
75417;SDS011;63997;52.112;5.420;2023-02-28T16:30:04;2.25;;;1.00;;
75417;SDS011;63997;52.112;5.420;2023-02-28T16:32:32;1.30;;;1.00;;
75417;SDS011;63997;52.112;5.420;2023-02-28T16:35:02;1.27;;;0.80;;
75417;SDS011;63997;52.112;5.420;2023-02-28T16:37:29;1.67;;;0.90;;
75417;SDS011;63997;52.112;5.420;2023-02-28T16:39:55;1.77;;;1.10;;
75417;SDS011;63997;52.112;5.420;2023-02-28T16:42:22;3.45;;;1.38;;
75417;SDS011;63997;52.112;5.420;2023-02-28T16:44:52;4.57;;;1.10;;
75417;SDS011;63997;52.112;5.420;2023-02-28T16:47:19;2.80;;;2.00;;
75417;SDS011;63997;52.112;5.420;2023-02-28T16:49:46;3.33;;;1.30;;
75417;SDS011;63997;52.112;5.420;2023-02-28T16:52:13;3.10;;;1.00;;
75417;SDS011;63997;52.112;5.420;2023-02-28T16:54:40;2.75;;;1.20;;
75417;SDS011;63997;52.112;5.420;2023-02-28T16:57:18;1.42;;;1.25;;
75417;SDS011;63997;52.112;5.420;2023-02-28T16:59:48;2.77;;;1.10;;
75417;SDS011;63997;52.112;5.420;2023-02-28T17:02:17;1.90;;;1.05;;
75417;SDS011;63997;52.112;5.420;2023-02-28T17:04:47;1.63;;;1.20;;
75417;SDS011;63997;52.112;5.420;2023-02-28T17:07:15;1.83;;;0.90;;
75417;SDS011;63997;52.112;5.420;2023-02-28T17:09:43;2.42;;;1.08;;
75417;SDS011;63997;52.112;5.420;2023-02-28T17:12:11;2.57;;;1.00;;
75417;SDS011;63997;52.112;5.420;2023-02-28T17:14:38;2.78;;;1.67;;
75417;SDS011;63997;52.112;5.420;2023-02-28T17:17:05;3.08;;;2.45;;
75417;SDS011;63997;52.112;5.420;2023-02-28T17:19:32;3.17;;;2.38;;
75417;SDS011;63997;52.112;5.420;2023-02-28T17:22:00;3.22;;;1.65;;
75417;SDS011;63997;52.112;5.420;2023-02-28T17:24:26;2.40;;;1.80;;
75417;SDS011;63997;52.112;5.420;2023-02-28T17:26:56;4.05;;;2.60;;
75417;SDS011;63997;52.112;5.420;2023-02-28T17:29:23;4.30;;;1.80;;
75417;SDS011;63997;52.112;5.420;2023-02-28T17:31:50;4.05;;;2.78;;
75417;SDS011;63997;52.112;5.420;2023-02-28T17:34:17;4.25;;;2.78;;
75417;SDS011;63997;52.112;5.420;2023-02-28T17:36:45;2.67;;;2.10;;
75417;SDS011;63997;52.112;5.420;2023-02-28T17:39:13;4.82;;;3.00;;
75417;SDS011;63997;52.112;5.420;2023-02-28T17:41:41;3.40;;;2.20;;